Time;durP1;ratioP1;P1;durP2;ratioP2;P2;SDS_P1;SDS_P2;PMS_P1;PMS_P2;Temp;Humidity;BMP_temperature;BMP_pressure;BME280_temperature;BME280_humidity;BME280_pressure;Samples;Min_cycle;Max_cycle;Signal;HPM_P1;HPM_P2
2021/08/18 00:01:40;;;;;;;5.28;4.40;;;14.00;98.00;;;;;;4973828;28;20023;-73
2021/08/18 00:04:08;;;;;;;8.48;4.28;;;14.20;97.90;;;;;;4973839;28;20038;-73
2021/08/18 00:06:35;;;;;;;8.52;4.55;;;14.30;98.00;;;;;;4973830;28;20035;-74
2021/08/18 00:09:06;;;;;;;6.55;3.97;;;14.50;97.80;;;;;;4974947;28;20483;-73
2021/08/18 00:11:33;;;;;;;6.40;3.83;;;14.60;97.50;;;;;;4974885;28;20113;-74
2021/08/18 00:14:01;;;;;;;7.28;4.00;;;14.70;97.50;;;;;;4974886;28;20034;-72
2021/08/18 00:16:29;;;;;;;9.73;4.43;;;14.70;97.30;;;;;;4974582;28;20061;-73
2021/08/18 00:18:56;;;;;;;5.32;3.90;;;14.70;97.50;;;;;;4973351;28;20047;-72
2021/08/18 00:21:25;;;;;;;5.45;4.00;;;14.70;97.60;;;;;;4974745;28;20137;-72
2021/08/18 00:23:53;;;;;;;7.75;4.45;;;14.80;97.70;;;;;;4973673;28;20598;-72
2021/08/18 00:26:26;;;;;;;4.88;4.47;;;14.80;97.60;;;;;;4974654;28;20035;-72
2021/08/18 00:28:57;;;;;;;7.82;4.43;;;14.90;97.40;;;;;;4973389;28;20038;-73
2021/08/18 00:31:25;;;;;;;8.60;4.40;;;15.00;97.50;;;;;;4974699;28;20101;-72
2021/08/18 00:33:52;;;;;;;7.60;4.35;;;15.20;97.80;;;;;;4973241;28;20098;-72
2021/08/18 00:36:20;;;;;;;10.13;5.03;;;15.30;98.30;;;;;;4973054;28;20086;-73
2021/08/18 00:38:47;;;;;;;6.80;4.43;;;15.50;98.20;;;;;;4974386;28;20023;-73
2021/08/18 00:41:15;;;;;;;6.88;4.43;;;15.70;98.00;;;;;;4973155;28;20089;-72
2021/08/18 00:43:42;;;;;;;8.10;4.32;;;15.70;97.90;;;;;;4973105;28;20097;-72
2021/08/18 00:46:10;;;;;;;7.72;4.32;;;15.80;97.90;;;;;;4974386;28;20119;-72
2021/08/18 00:48:38;;;;;;;5.75;4.00;;;15.70;98.60;;;;;;4973841;28;20110;-72
2021/08/18 00:51:05;;;;;;;6.65;4.15;;;15.80;98.60;;;;;;4972872;28;20109;-72
2021/08/18 00:53:34;;;;;;;7.60;4.25;;;15.80;98.70;;;;;;4974422;28;20035;-72
2021/08/18 00:56:01;;;;;;;10.02;3.75;;;15.80;98.40;;;;;;4974184;28;20074;-72
2021/08/18 00:58:29;;;;;;;11.32;4.35;;;15.90;98.00;;;;;;4974253;28;20084;-73
2021/08/18 01:01:00;;;;;;;9.23;4.20;;;16.10;97.70;;;;;;4972778;28;20110;-73
2021/08/18 01:03:28;;;;;;;5.47;4.10;;;16.20;97.80;;;;;;4974460;28;20067;-73
2021/08/18 01:05:56;;;;;;;7.35;3.90;;;16.10;97.30;;;;;;4972847;28;20085;-72
2021/08/18 01:08:23;;;;;;;7.07;3.90;;;16.20;97.60;;;;;;4972692;28;20045;-73
2021/08/18 01:10:51;;;;;;;6.57;3.80;;;16.30;97.30;;;;;;4973963;28;20030;-73
2021/08/18 01:13:20;;;;;;;7.07;3.70;;;16.30;96.70;;;;;;4972429;28;20038;-72
2021/08/18 01:15:47;;;;;;;7.50;3.33;;;16.30;96.50;;;;;;4973783;28;20031;-72
2021/08/18 01:18:15;;;;;;;7.65;3.55;;;16.30;96.50;;;;;;4972639;28;20026;-71
2021/08/18 01:20:43;;;;;;;6.63;3.67;;;16.40;96.50;;;;;;4973994;28;20019;-73
2021/08/18 01:23:13;;;;;;;7.88;3.67;;;16.50;96.10;;;;;;4974031;28;20475;-72
2021/08/18 01:25:43;;;;;;;6.47;3.80;;;16.50;96.20;;;;;;4973820;28;20031;-73
2021/08/18 01:28:11;;;;;;;4.97;3.50;;;16.40;95.80;;;;;;4972518;28;20488;-73
2021/08/18 01:30:40;;;;;;;7.20;3.47;;;16.50;96.00;;;;;;4973829;28;20037;-73
2021/08/18 01:33:13;;;;;;;8.70;3.60;;;16.50;95.70;;;;;;4973663;28;20038;-73
2021/08/18 01:35:43;;;;;;;6.78;3.00;;;16.70;95.90;;;;;;4972470;28;20452;-73
2021/08/18 01:38:13;;;;;;;9.18;3.45;;;16.80;95.50;;;;;;4973969;28;20019;-74
2021/08/18 01:40:43;;;;;;;7.28;3.33;;;16.90;94.80;;;;;;4973868;28;20023;-74
2021/08/18 01:43:11;;;;;;;4.68;2.85;;;16.90;94.70;;;;;;4973769;28;20034;-73
2021/08/18 01:45:41;;;;;;;5.53;2.80;;;17.10;95.20;;;;;;4972553;28;20437;-74
2021/08/18 01:48:22;;;;;;;5.68;3.08;;;17.20;94.70;;;;;;4974208;28;20031;-72
2021/08/18 01:50:51;;;;;;;4.28;3.00;;;17.40;94.70;;;;;;4973825;28;20488;-73
2021/08/18 01:53:25;;;;;;;7.30;3.35;;;17.50;94.30;;;;;;4973748;28;20472;-74
2021/08/18 01:55:53;;;;;;;6.82;4.07;;;17.70;94.00;;;;;;4973955;28;20077;-72
2021/08/18 01:58:20;;;;;;;5.88;3.10;;;17.50;93.50;;;;;;4973810;28;20027;-75
2021/08/18 02:00:48;;;;;;;5.15;3.22;;;17.30;93.80;;;;;;4973351;28;20022;-74
2021/08/18 02:03:15;;;;;;;8.88;3.28;;;17.00;94.10;;;;;;4977369;28;20054;-74
2021/08/18 02:05:42;;;;;;;10.32;3.60;;;16.80;94.40;;;;;;4977418;28;20109;-73
2021/08/18 02:08:10;;;;;;;4.78;2.85;;;16.70;94.50;;;;;;4977347;28;20531;-73
2021/08/18 02:10:37;;;;;;;5.82;2.90;;;16.60;94.60;;;;;;4977298;28;20029;-73
2021/08/18 02:13:04;;;;;;;8.73;3.20;;;16.60;95.20;;;;;;4975793;28;20174;-73
2021/08/18 02:15:34;;;;;;;4.70;2.63;;;16.70;94.40;;;;;;4975736;28;20043;-73
2021/08/18 02:18:03;;;;;;;5.63;3.58;;;16.60;94.30;;;;;;4977147;28;20023;-74
2021/08/18 02:20:33;;;;;;;5.20;2.53;;;16.70;94.60;;;;;;4977084;28;20424;-73
2021/08/18 02:23:02;;;;;;;4.43;3.00;;;16.70;94.50;;;;;;4977099;28;20364;-73
2021/08/18 02:25:29;;;;;;;6.07;2.70;;;16.90;93.90;;;;;;4977063;28;20081;-73
2021/08/18 02:27:57;;;;;;;3.88;2.80;;;16.90;93.60;;;;;;4977024;28;20019;-73
2021/08/18 02:30:27;;;;;;;6.20;3.08;;;16.90;93.30;;;;;;4976990;28;20026;-72
2021/08/18 02:32:55;;;;;;;7.77;3.57;;;16.90;93.60;;;;;;4975683;28;20027;-73
2021/08/18 02:35:23;;;;;;;7.22;3.30;;;16.90;93.80;;;;;;4976826;28;20471;-74
2021/08/18 02:37:56;;;;;;;7.13;3.30;;;16.90;93.70;;;;;;4975550;28;20029;-73
2021/08/18 02:40:23;;;;;;;6.82;3.08;;;16.90;93.80;;;;;;4976688;28;20081;-73
2021/08/18 02:42:54;;;;;;;6.25;3.10;;;17.00;94.30;;;;;;4976639;28;20061;-73
2021/08/18 02:45:23;;;;;;;6.43;3.30;;;17.10;93.90;;;;;;4975271;28;20034;-73
2021/08/18 02:47:51;;;;;;;4.63;3.27;;;17.20;94.00;;;;;;4976625;28;20468;-74
2021/08/18 02:50:24;;;;;;;6.18;3.80;;;17.40;93.60;;;;;;4976454;28;20019;-73
2021/08/18 02:52:51;;;;;;;5.50;3.13;;;17.50;93.60;;;;;;4975215;28;20026;-73
2021/08/18 02:55:19;;;;;;;6.57;3.05;;;17.40;93.20;;;;;;4976428;28;20022;-72
2021/08/18 02:57:46;;;;;;;5.13;2.88;;;17.30;93.00;;;;;;4975140;28;20027;-73
2021/08/18 03:00:14;;;;;;;6.38;2.60;;;17.30;93.60;;;;;;4976272;28;20019;-73
2021/08/18 03:02:42;;;;;;;6.38;3.33;;;17.70;93.80;;;;;;4976347;28;20015;-73
2021/08/18 03:05:10;;;;;;;5.97;3.13;;;17.90;93.20;;;;;;4975180;28;20066;-73
2021/08/18 03:07:38;;;;;;;5.55;3.20;;;18.00;92.60;;;;;;4976355;28;20023;-72
2021/08/18 03:10:06;;;;;;;7.90;2.78;;;18.40;93.20;;;;;;4976327;28;20510;-72
2021/08/18 03:12:33;;;;;;;3.58;2.60;;;18.50;92.30;;;;;;4974320;28;20472;-71
2021/08/18 03:15:00;;;;;;;4.90;3.05;;;18.50;92.60;;;;;;4974419;28;20066;-73
2021/08/18 03:17:28;;;;;;;6.72;2.67;;;18.40;93.40;;;;;;4975993;28;20030;-72
2021/08/18 03:19:55;;;;;;;6.50;2.83;;;18.60;93.80;;;;;;4976010;28;20476;-73
2021/08/18 03:22:23;;;;;;;6.13;3.20;;;18.70;94.10;;;;;;4976016;28;20049;-72
2021/08/18 03:24:50;;;;;;;5.00;3.00;;;18.50;94.50;;;;;;4974593;28;20037;-73
2021/08/18 03:27:17;;;;;;;7.13;2.70;;;18.10;94.80;;;;;;4974603;28;20443;-72
2021/08/18 03:29:45;;;;;;;10.20;3.13;;;18.00;95.40;;;;;;4975855;28;20023;-73
2021/08/18 03:32:12;;;;;;;7.78;3.47;;;18.40;95.70;;;;;;4975741;28;20069;-73
2021/08/18 03:34:39;;;;;;;6.53;3.13;;;18.30;95.00;;;;;;4975789;28;20038;-73
2021/08/18 03:37:07;;;;;;;8.30;3.20;;;18.20;95.20;;;;;;4974294;28;20030;-73
2021/08/18 03:39:34;;;;;;;6.72;2.90;;;18.10;95.00;;;;;;4974323;28;20027;-73
2021/08/18 03:42:02;;;;;;;5.20;2.70;;;18.00;95.10;;;;;;4974684;28;20426;-74
2021/08/18 03:44:29;;;;;;;9.45;3.20;;;17.80;94.70;;;;;;4975724;28;20439;-73
2021/08/18 03:46:57;;;;;;;8.02;2.90;;;17.80;94.90;;;;;;4974214;28;20030;-74
2021/08/18 03:49:24;;;;;;;5.55;3.20;;;17.70;95.10;;;;;;4975512;28;20050;-74
2021/08/18 03:51:51;;;;;;;7.35;2.78;;;17.70;94.70;;;;;;4975503;28;20033;-75
2021/08/18 03:54:19;;;;;;;6.47;3.30;;;18.00;94.70;;;;;;4975416;28;20369;-74
2021/08/18 03:56:46;;;;;;;8.35;3.00;;;17.80;93.70;;;;;;4975353;28;20034;-73
2021/08/18 03:59:14;;;;;;;6.70;3.17;;;17.60;94.50;;;;;;4975260;28;20058;-72
2021/08/18 04:01:41;;;;;;;4.75;3.10;;;17.70;94.90;;;;;;4974039;28;20023;-73
2021/08/18 04:04:09;;;;;;;7.18;2.78;;;18.00;94.70;;;;;;4975301;28;20027;-73
2021/08/18 04:06:36;;;;;;;4.75;2.90;;;18.30;94.30;;;;;;4975079;28;20121;-74
2021/08/18 04:09:04;;;;;;;6.38;3.65;;;18.10;93.80;;;;;;4973856;28;20046;-73
2021/08/18 04:11:31;;;;;;;5.20;2.85;;;17.80;94.50;;;;;;4973769;28;20026;-75
2021/08/18 04:13:59;;;;;;;13.38;4.25;;;17.70;94.50;;;;;;4973687;28;20077;-74
2021/08/18 04:16:26;;;;;;;4.78;3.10;;;17.60;95.00;;;;;;4973679;28;20039;-75
2021/08/18 04:18:53;;;;;;;4.03;2.80;;;17.80;95.20;;;;;;4973710;28;20054;-75
2021/08/18 04:21:21;;;;;;;6.75;3.00;;;17.80;95.40;;;;;;4973678;28;20031;-75
2021/08/18 04:23:48;;;;;;;8.10;3.63;;;17.60;95.10;;;;;;4974113;28;20026;-76
2021/08/18 04:26:16;;;;;;;8.07;3.53;;;17.20;95.70;;;;;;4974936;28;20033;-75
2021/08/18 04:28:43;;;;;;;4.82;3.05;;;17.00;96.20;;;;;;4974919;28;20078;-75
2021/08/18 04:31:10;;;;;;;8.75;3.38;;;17.10;96.50;;;;;;4975209;28;20082;-75
2021/08/18 04:33:38;;;;;;;7.65;3.03;;;17.30;95.90;;;;;;4975030;28;20480;-73
2021/08/18 04:36:05;;;;;;;5.15;2.97;;;17.50;96.10;;;;;;4973450;28;20479;-75
2021/08/18 04:38:33;;;;;;;7.10;3.10;;;17.70;95.60;;;;;;4974768;28;20114;-74
2021/08/18 04:41:00;;;;;;;7.43;3.53;;;17.50;95.20;;;;;;4974619;28;20472;-75
2021/08/18 04:43:28;;;;;;;5.10;2.78;;;17.20;95.90;;;;;;4974485;28;20039;-75
2021/08/18 04:45:55;;;;;;;6.32;2.80;;;17.20;95.80;;;;;;4974548;28;20042;-74
2021/08/18 04:48:22;;;;;;;5.07;3.10;;;17.20;95.80;;;;;;4973370;28;20117;-75
2021/08/18 04:50:50;;;;;;;5.68;3.15;;;17.20;96.40;;;;;;4973484;28;20458;-74
2021/08/18 04:53:17;;;;;;;4.30;3.20;;;17.00;96.40;;;;;;4973055;28;20475;-75
2021/08/18 04:55:45;;;;;;;6.82;3.00;;;17.10;96.90;;;;;;4973108;28;20085;-76
2021/08/18 04:58:12;;;;;;;9.23;3.35;;;17.10;96.30;;;;;;4974476;28;20027;-74
2021/08/18 05:00:39;;;;;;;5.13;3.03;;;17.20;96.10;;;;;;4974311;28;20015;-74
2021/08/18 05:03:11;;;;;;;5.05;3.15;;;17.20;95.90;;;;;;4972757;28;20399;-73
2021/08/18 05:05:38;;;;;;;4.38;2.92;;;17.20;96.30;;;;;;4972861;28;20018;-74
2021/08/18 05:08:07;;;;;;;4.30;2.90;;;17.30;96.20;;;;;;4972674;28;20039;-73
2021/08/18 05:10:35;;;;;;;6.40;3.00;;;17.30;96.40;;;;;;4974158;28;20476;-75
2021/08/18 05:13:03;;;;;;;4.97;3.35;;;17.10;96.10;;;;;;4972810;28;20113;-76
2021/08/18 05:15:31;;;;;;;5.10;2.70;;;17.00;96.40;;;;;;4972507;28;20070;-76
2021/08/18 05:17:58;;;;;;;8.85;3.22;;;16.90;96.50;;;;;;4972673;28;20113;-75
2021/08/18 05:20:26;;;;;;;3.50;2.83;;;17.00;96.90;;;;;;4972632;28;20023;-75
2021/08/18 05:22:53;;;;;;;3.78;2.53;;;17.00;96.70;;;;;;4973942;28;20383;-76
2021/08/18 05:25:20;;;;;;;6.20;2.63;;;17.00;96.40;;;;;;4973984;28;20025;-75
2021/08/18 05:27:48;;;;;;;6.13;3.13;;;17.00;96.10;;;;;;4973796;28;20121;-75
2021/08/18 05:30:17;;;;;;;4.43;2.90;;;17.00;96.70;;;;;;4972769;28;20034;-74
2021/08/18 05:32:45;;;;;;;2.72;2.53;;;16.90;96.90;;;;;;4972497;28;20019;-73
2021/08/18 05:35:14;;;;;;;5.22;2.78;;;16.80;97.00;;;;;;4975492;28;20093;-74
2021/08/18 05:37:44;;;;;;;3.10;2.53;;;16.80;97.20;;;;;;4976584;28;20054;-74
2021/08/18 05:40:12;;;;;;;3.35;2.50;;;16.70;97.10;;;;;;4977985;28;20038;-75
2021/08/18 05:42:40;;;;;;;6.70;2.95;;;16.70;97.10;;;;;;4977892;28;20536;-75
2021/08/18 05:45:08;;;;;;;3.55;2.20;;;16.70;97.20;;;;;;4977909;28;20023;-73
2021/08/18 05:47:35;;;;;;;2.85;2.60;;;16.60;97.00;;;;;;4976271;28;20070;-73
2021/08/18 05:50:03;;;;;;;3.92;2.70;;;16.50;96.60;;;;;;4977698;28;20033;-74
2021/08/18 05:52:31;;;;;;;5.63;3.22;;;16.50;96.80;;;;;;4976238;28;20031;-73
2021/08/18 05:55:02;;;;;;;3.55;2.50;;;16.40;96.90;;;;;;4977741;28;20166;-74
2021/08/18 05:57:30;;;;;;;4.55;2.97;;;16.40;97.30;;;;;;4977729;28;20034;-74
2021/08/18 05:59:58;;;;;;;5.00;2.40;;;16.30;97.00;;;;;;4976045;28;20495;-73
2021/08/18 06:02:25;;;;;;;4.30;2.60;;;16.20;97.00;;;;;;4976086;28;20030;-74
2021/08/18 06:04:52;;;;;;;3.70;2.75;;;16.20;96.80;;;;;;4977348;28;20428;-74
2021/08/18 06:07:20;;;;;;;3.55;2.50;;;16.10;97.20;;;;;;4977308;28;20023;-75
2021/08/18 06:09:47;;;;;;;4.18;3.05;;;16.10;97.00;;;;;;4977313;28;20392;-73
2021/08/18 06:12:14;;;;;;;5.65;2.80;;;16.00;97.00;;;;;;4977073;28;20066;-73
2021/08/18 06:14:42;;;;;;;2.83;2.33;;;16.00;96.90;;;;;;4977002;28;20053;-74
2021/08/18 06:17:09;;;;;;;5.88;2.38;;;16.00;96.60;;;;;;4977132;28;20495;-74
2021/08/18 06:19:36;;;;;;;2.78;2.47;;;15.90;97.10;;;;;;4977090;28;20015;-74
2021/08/18 06:22:04;;;;;;;5.10;2.53;;;15.90;97.30;;;;;;4977341;28;20041;-75
2021/08/18 06:27:05;;;;;;;3.45;2.50;;;15.80;97.60;;;;;;4977226;28;20030;-73
2021/08/18 06:29:34;;;;;;;5.97;3.10;;;15.70;97.60;;;;;;4976992;28;20096;-74
2021/08/18 06:32:04;;;;;;;3.70;2.75;;;15.70;97.70;;;;;;4976957;28;20023;-74
2021/08/18 06:34:32;;;;;;;3.95;2.60;;;15.60;98.00;;;;;;4975531;28;20085;-74
2021/08/18 06:37:02;;;;;;;3.55;2.40;;;15.50;98.20;;;;;;4977084;28;20031;-74
2021/08/18 06:39:34;;;;;;;3.42;2.58;;;15.50;98.20;;;;;;4976634;28;20015;-75
2021/08/18 06:42:02;;;;;;;6.97;3.03;;;15.40;98.40;;;;;;4976895;28;20058;-74
2021/08/18 06:44:29;;;;;;;3.85;2.50;;;15.30;98.60;;;;;;4976627;28;20023;-74
2021/08/18 06:46:57;;;;;;;3.20;2.90;;;15.30;98.60;;;;;;4974540;28;20073;-76
2021/08/18 06:49:24;;;;;;;4.35;2.90;;;15.20;98.70;;;;;;4976470;28;20026;-74
2021/08/18 06:51:52;;;;;;;5.70;3.30;;;15.10;99.00;;;;;;4975488;28;20030;-74
2021/08/18 06:54:19;;;;;;;6.22;3.60;;;15.00;99.40;;;;;;4974829;28;20027;-75
2021/08/18 06:56:46;;;;;;;4.75;2.90;;;15.00;99.50;;;;;;4975076;28;20037;-75
2021/08/18 06:59:15;;;;;;;6.55;3.05;;;14.90;99.40;;;;;;4976338;28;20033;-74
2021/08/18 07:01:46;;;;;;;4.32;2.80;;;14.80;99.10;;;;;;4959039;28;20031;-73
2021/08/18 07:04:13;;;;;;;2.90;2.65;;;14.80;99.30;;;;;;4974850;28;20034;-74
2021/08/18 07:06:42;;;;;;;4.22;2.97;;;14.70;99.50;;;;;;4976176;28;20038;-75
2021/08/18 07:09:09;;;;;;;2.58;2.38;;;14.60;99.60;;;;;;4974633;28;20030;-74
2021/08/18 07:11:36;;;;;;;4.88;2.75;;;14.50;99.90;;;;;;4976073;28;20464;-74
2021/08/18 07:14:05;;;;;;;6.07;2.90;;;14.40;99.90;;;;;;4974856;28;20027;-74
2021/08/18 07:16:34;;;;;;;3.47;2.60;;;14.40;99.90;;;;;;4974364;28;20058;-74
2021/08/18 07:19:03;;;;;;;4.72;3.00;;;14.30;99.90;;;;;;4974749;28;20054;-74
2021/08/18 07:21:31;;;;;;;4.70;3.17;;;14.20;99.90;;;;;;4974481;28;20078;-74
2021/08/18 07:23:58;;;;;;;6.25;2.92;;;14.20;99.90;;;;;;4974596;28;20027;-74
2021/08/18 07:26:29;;;;;;;3.78;2.90;;;14.10;99.90;;;;;;4975754;28;20042;-74
2021/08/18 07:28:58;;;;;;;4.70;3.00;;;14.00;99.90;;;;;;4975617;28;20029;-74
2021/08/18 07:31:26;;;;;;;4.70;2.80;;;14.00;99.90;;;;;;4975591;28;20022;-73
2021/08/18 07:33:54;;;;;;;5.15;3.00;;;13.90;99.90;;;;;;4975748;28;20026;-72
2021/08/18 07:36:22;;;;;;;5.80;3.45;;;13.80;99.90;;;;;;4975481;28;20042;-72
2021/08/18 07:38:49;;;;;;;7.22;3.40;;;13.80;99.90;;;;;;4975652;28;20161;-73
2021/08/18 07:41:17;;;;;;;4.28;3.30;;;13.70;99.90;;;;;;4975718;28;20031;-74
2021/08/18 07:43:44;;;;;;;4.05;3.38;;;13.60;99.90;;;;;;4975485;28;20034;-72
2021/08/18 07:46:12;;;;;;;4.82;3.45;;;13.60;99.90;;;;;;4975354;28;20023;-73
2021/08/18 07:48:39;;;;;;;5.22;3.55;;;13.50;99.90;;;;;;4975432;28;20054;-73
2021/08/18 07:51:07;;;;;;;4.65;2.90;;;13.40;99.90;;;;;;4975328;28;20026;-73
2021/08/18 07:53:39;;;;;;;3.42;3.13;;;13.30;99.90;;;;;;4974044;28;20038;-73
2021/08/18 07:56:07;;;;;;;5.40;3.20;;;13.20;99.90;;;;;;4975156;28;20057;-73
2021/08/18 07:58:34;;;;;;;4.15;3.53;;;13.10;99.90;;;;;;4975164;28;20023;-73
2021/08/18 08:01:01;;;;;;;4.00;3.15;;;13.10;99.90;;;;;;4973744;28;20475;-74
2021/08/18 08:03:29;;;;;;;5.93;2.92;;;13.10;99.90;;;;;;4974981;28;20109;-73
2021/08/18 08:05:56;;;;;;;5.18;2.97;;;13.00;99.90;;;;;;4974971;28;20047;-73
2021/08/18 08:08:24;;;;;;;7.78;3.42;;;13.00;99.90;;;;;;4973683;28;20459;-73
2021/08/18 08:10:51;;;;;;;5.60;3.40;;;12.90;99.90;;;;;;4974999;28;20023;-75
2021/08/18 08:13:18;;;;;;;6.28;3.45;;;12.90;99.90;;;;;;4974990;28;20122;-73
2021/08/18 08:15:46;;;;;;;10.82;9.70;;;13.00;99.90;;;;;;4974690;28;20099;-73
2021/08/18 08:18:13;;;;;;;8.40;6.43;;;12.90;99.90;;;;;;4974837;28;20050;-74
2021/08/18 08:20:41;;;;;;;8.05;6.53;;;12.90;99.90;;;;;;4974887;28;20061;-74
2021/08/18 08:23:08;;;;;;;22.27;18.67;;;12.80;99.90;;;;;;4974842;28;20046;-73
2021/08/18 08:25:36;;;;;;;8.82;6.43;;;12.70;99.90;;;;;;4974744;28;20050;-73
2021/08/18 08:28:03;;;;;;;13.27;9.65;;;12.70;99.90;;;;;;4974681;28;20030;-73
2021/08/18 08:30:30;;;;;;;14.80;7.95;;;12.60;99.90;;;;;;4974675;28;20353;-74
2021/08/18 08:32:58;;;;;;;11.20;7.20;;;12.60;99.90;;;;;;4973214;28;20022;-73
2021/08/18 08:35:25;;;;;;;10.90;8.48;;;12.60;99.90;;;;;;4974617;28;20487;-73
2021/08/18 08:37:53;;;;;;;10.80;7.70;;;12.60;99.90;;;;;;4973166;28;20150;-73
2021/08/18 08:40:21;;;;;;;8.65;7.60;;;12.50;99.90;;;;;;4957309;28;20038;-73
2021/08/18 08:42:49;;;;;;;12.80;11.43;;;12.50;99.90;;;;;;4973073;28;20395;-73
2021/08/18 08:45:16;;;;;;;21.02;17.40;;;12.40;99.90;;;;;;4973450;28;20031;-72
2021/08/18 08:47:44;;;;;;;14.75;10.88;;;12.40;99.90;;;;;;4974247;28;20046;-73
2021/08/18 08:50:14;;;;;;;10.45;8.88;;;12.40;99.90;;;;;;4974519;28;20027;-72
2021/08/18 08:52:41;;;;;;;12.40;9.30;;;12.30;99.90;;;;;;4974515;28;20018;-73
2021/08/18 08:55:09;;;;;;;10.98;8.70;;;12.30;99.90;;;;;;4974280;28;20097;-71
2021/08/18 08:57:50;;;;;;;9.68;8.27;;;12.30;99.90;;;;;;4973091;28;20019;-72
2021/08/18 09:00:19;;;;;;;11.75;10.20;;;12.30;99.90;;;;;;4972841;28;20109;-73
2021/08/18 09:02:47;;;;;;;21.65;16.52;;;12.20;99.90;;;;;;4957057;28;20126;-74
2021/08/18 09:05:28;;;;;;;16.00;10.85;;;12.20;99.90;;;;;;4974253;28;20062;-73
2021/08/18 09:07:59;;;;;;;14.00;11.50;;;12.20;99.90;;;;;;4974026;28;20026;-70
2021/08/18 09:10:27;;;;;;;10.50;7.85;;;12.10;99.90;;;;;;4972263;28;20344;-71
2021/08/18 09:13:10;;;;;;;6.07;5.50;;;12.10;99.90;;;;;;4973864;28;20480;-71
2021/08/18 09:15:37;;;;;;;9.30;7.38;;;12.00;99.90;;;;;;4972554;28;20373;-71
2021/08/18 09:18:08;;;;;;;9.15;8.25;;;12.00;99.90;;;;;;4974057;28;20447;-72
2021/08/18 09:20:40;;;;;;;8.38;7.57;;;12.00;99.90;;;;;;4973966;28;20105;-71
2021/08/18 09:23:12;;;;;;;19.35;16.45;;;12.00;99.90;;;;;;4972634;28;20039;-71
2021/08/18 09:25:41;;;;;;;16.08;12.48;;;12.00;99.90;;;;;;4972603;28;20089;-71
2021/08/18 09:28:08;;;;;;;11.75;10.25;;;11.90;99.90;;;;;;4972441;28;20077;-71
2021/08/18 09:30:38;;;;;;;14.60;8.90;;;11.90;99.90;;;;;;4972420;28;20023;-70
2021/08/18 09:33:22;;;;;;;9.63;7.60;;;11.90;99.90;;;;;;4973785;28;20028;-69
2021/08/18 09:35:57;;;;;;;11.30;5.35;;;11.90;99.90;;;;;;4972478;28;20062;-70
2021/08/18 09:38:27;;;;;;;8.68;5.90;;;11.80;99.90;;;;;;4973965;28;20027;-70
2021/08/18 09:40:54;;;;;;;21.20;15.13;;;11.80;99.90;;;;;;4972344;28;20030;-70
2021/08/18 09:43:27;;;;;;;12.48;9.63;;;11.80;99.90;;;;;;4973681;28;20110;-71
2021/08/18 09:46:02;;;;;;;13.25;8.18;;;11.70;99.90;;;;;;4973806;28;20034;-72
2021/08/18 09:48:34;;;;;;;6.65;5.72;;;11.70;99.90;;;;;;4973873;28;20054;-70
2021/08/18 09:51:08;;;;;;;16.77;13.00;;;11.70;99.90;;;;;;4973796;28;20023;-70
2021/08/18 09:53:41;;;;;;;14.90;6.22;;;11.70;99.90;;;;;;4972247;28;20030;-70
2021/08/18 09:56:16;;;;;;;12.25;5.90;;;11.60;99.90;;;;;;4973618;28;20050;-70
2021/08/18 09:58:54;;;;;;;8.95;5.20;;;11.60;99.90;;;;;;4972331;28;20031;-69
2021/08/18 10:01:22;;;;;;;7.63;4.55;;;11.60;99.90;;;;;;4973713;28;20123;-70
2021/08/18 10:03:54;;;;;;;12.45;5.60;;;11.50;99.90;;;;;;4955752;28;20448;-71
2021/08/18 10:06:22;;;;;;;7.35;4.90;;;11.50;99.90;;;;;;4972435;28;20502;-70
2021/08/18 10:08:53;;;;;;;7.80;5.28;;;11.50;99.90;;;;;;4956277;28;20085;-71
2021/08/18 10:11:29;;;;;;;7.18;4.90;;;11.50;99.90;;;;;;4973414;28;20122;-70
2021/08/18 10:13:57;;;;;;;9.85;5.30;;;11.50;99.90;;;;;;4973573;28;20507;-70
2021/08/18 10:16:25;;;;;;;6.80;5.03;;;11.40;99.90;;;;;;4972042;28;20051;-71
2021/08/18 10:18:56;;;;;;;8.65;5.93;;;11.40;99.90;;;;;;4973758;28;20138;-71
2021/08/18 10:21:34;;;;;;;6.68;5.38;;;11.40;99.90;;;;;;4972630;28;20038;-70
2021/08/18 10:24:05;;;;;;;9.45;5.80;;;11.30;99.90;;;;;;4960090;28;20039;-69
2021/08/18 10:26:35;;;;;;;7.85;5.57;;;11.30;99.90;;;;;;4977279;28;20100;-69
2021/08/18 10:29:19;;;;;;;9.23;5.97;;;11.30;99.90;;;;;;4975647;28;20037;-69
2021/08/18 10:31:47;;;;;;;10.70;6.07;;;11.20;99.90;;;;;;4976973;28;20030;-69
2021/08/18 10:34:24;;;;;;;11.65;6.05;;;11.20;99.90;;;;;;4976828;28;20030;-69
2021/08/18 10:36:56;;;;;;;8.50;6.40;;;11.20;99.90;;;;;;4976811;28;20026;-70
2021/08/18 10:39:26;;;;;;;11.77;6.30;;;11.30;99.90;;;;;;4976772;28;20015;-70
2021/08/18 10:42:17;;;;;;;6.97;5.80;;;11.20;99.90;;;;;;4975515;28;20019;-69
2021/08/18 10:44:50;;;;;;;6.70;5.32;;;11.20;99.90;;;;;;4976788;28;20117;-70
2021/08/18 10:47:34;;;;;;;10.00;5.68;;;11.10;99.90;;;;;;4975383;28;20023;-71
2021/08/18 10:50:13;;;;;;;8.10;5.30;;;11.10;99.90;;;;;;4976566;28;20507;-70
2021/08/18 10:52:43;;;;;;;10.57;5.75;;;11.10;99.90;;;;;;4976547;28;20023;-70
2021/08/18 10:55:17;;;;;;;8.75;5.30;;;11.10;99.90;;;;;;4976264;28;20077;-70
2021/08/18 10:57:52;;;;;;;6.68;4.85;;;11.00;99.90;;;;;;4975088;28;20576;-70
2021/08/18 11:00:35;;;;;;;9.90;5.53;;;11.00;99.90;;;;;;4975023;28;20055;-70
2021/08/18 11:03:16;;;;;;;6.32;5.60;;;11.00;99.90;;;;;;4976389;28;20103;-70
2021/08/18 11:05:49;;;;;;;11.02;5.50;;;11.00;99.90;;;;;;4976288;28;20094;-73
2021/08/18 11:08:27;;;;;;;10.00;5.70;;;11.00;99.90;;;;;;4976356;28;20023;-70
2021/08/18 11:10:55;;;;;;;7.60;5.82;;;10.90;99.90;;;;;;4974523;28;20039;-69
2021/08/18 11:13:47;;;;;;;8.95;5.60;;;10.90;99.90;;;;;;4974695;28;20035;-70
2021/08/18 11:16:18;;;;;;;8.77;6.18;;;10.90;99.90;;;;;;4976068;28;20433;-70
2021/08/18 11:18:59;;;;;;;9.73;6.03;;;10.90;99.90;;;;;;4974714;28;20030;-70
2021/08/18 11:21:33;;;;;;;8.68;5.93;;;10.90;99.90;;;;;;4976054;28;20496;-70
2021/08/18 11:24:07;;;;;;;8.80;6.00;;;10.90;99.90;;;;;;4975221;28;20030;-69
2021/08/18 11:26:42;;;;;;;7.20;6.50;;;10.90;99.90;;;;;;4975912;28;20031;-70
2021/08/18 11:29:20;;;;;;;7.10;5.55;;;10.90;99.90;;;;;;4974638;28;20027;-70
2021/08/18 11:31:55;;;;;;;7.07;6.32;;;10.90;99.90;;;;;;4974525;28;20034;-71
2021/08/18 11:34:27;;;;;;;8.73;6.25;;;10.90;99.90;;;;;;4975362;28;20027;-71
2021/08/18 11:37:05;;;;;;;9.82;5.00;;;10.90;99.90;;;;;;4974510;28;20435;-71
2021/08/18 11:39:35;;;;;;;6.82;5.32;;;10.90;99.90;;;;;;4975678;28;20161;-71
2021/08/18 11:42:16;;;;;;;8.57;6.00;;;10.90;99.90;;;;;;4975598;28;20114;-70
2021/08/18 11:44:45;;;;;;;9.05;5.35;;;10.90;99.90;;;;;;4974190;28;20399;-71
2021/08/18 11:47:15;;;;;;;10.18;5.13;;;10.90;99.90;;;;;;4974083;28;20031;-70
2021/08/18 11:49:44;;;;;;;6.07;5.57;;;10.90;99.90;;;;;;4975371;28;20057;-69
2021/08/18 11:52:20;;;;;;;6.05;5.45;;;10.90;99.90;;;;;;4974105;28;20546;-69
2021/08/18 11:54:58;;;;;;;7.22;6.20;;;10.90;99.90;;;;;;4975346;28;20115;-70
2021/08/18 11:57:26;;;;;;;7.90;6.47;;;10.90;99.90;;;;;;4975475;28;20023;-70
2021/08/18 11:59:56;;;;;;;7.93;6.45;;;10.80;99.90;;;;;;4973913;28;20058;-70
2021/08/18 12:02:28;;;;;;;9.82;6.68;;;10.80;99.90;;;;;;4974254;28;20123;-71
2021/08/18 12:04:57;;;;;;;6.53;5.70;;;10.80;99.90;;;;;;4975101;28;20062;-70
2021/08/18 12:07:28;;;;;;;8.52;5.45;;;10.90;99.90;;;;;;4975116;28;20444;-70
2021/08/18 12:10:25;;;;;;;5.93;5.43;;;10.90;99.90;;;;;;4975073;28;20435;-70
2021/08/18 12:13:10;;;;;;;7.38;5.53;;;10.80;99.90;;;;;;4974973;28;20027;-69
2021/08/18 12:15:47;;;;;;;7.43;5.22;;;10.80;99.90;;;;;;4974815;28;20043;-69
2021/08/18 12:18:36;;;;;;;7.65;5.90;;;10.80;99.90;;;;;;4973608;28;20100;-70
2021/08/18 12:21:35;;;;;;;6.05;5.45;;;10.80;99.90;;;;;;4974927;28;20551;-70
2021/08/18 12:24:16;;;;;;;7.38;5.13;;;10.90;99.90;;;;;;4972581;28;20114;-70
2021/08/18 12:26:57;;;;;;;8.00;5.20;;;10.80;99.90;;;;;;4973632;28;20510;-70
2021/08/18 12:29:26;;;;;;;;;;;10.90;99.90;;;;;;4975405;28;20050;-71
2021/08/18 12:32:06;;;;;;;5.50;5.00;;;10.80;99.90;;;;;;4973535;28;19906;-69
2021/08/18 12:34:35;;;;;;;7.18;5.28;;;10.80;99.90;;;;;;4973457;28;20037;-70
2021/08/18 12:37:04;;;;;;;6.85;5.93;;;10.80;99.90;;;;;;4973263;28;20582;-70
2021/08/18 12:39:40;;;;;;;6.38;5.47;;;10.80;99.90;;;;;;4973224;28;20132;-70
2021/08/18 12:42:08;;;;;;;7.00;6.30;;;10.80;99.90;;;;;;4973291;28;20479;-70
2021/08/18 12:44:39;;;;;;;6.75;5.97;;;10.80;99.90;;;;;;4973868;28;20027;-70
2021/08/18 12:47:12;;;;;;;7.20;5.50;;;10.80;99.90;;;;;;4974503;28;20110;-70
2021/08/18 12:49:47;;;;;;;5.75;5.15;;;10.70;99.90;;;;;;4973210;28;20085;-69
2021/08/18 12:52:17;;;;;;;6.60;4.97;;;10.70;99.90;;;;;;4974461;28;20029;-70
2021/08/18 12:54:45;;;;;;;6.25;5.30;;;10.70;99.90;;;;;;4973010;28;20031;-70
2021/08/18 12:57:13;;;;;;;8.68;5.07;;;10.70;99.90;;;;;;4973281;28;20031;-69
2021/08/18 12:59:41;;;;;;;6.57;5.47;;;10.60;99.90;;;;;;4974343;28;20034;-70
2021/08/18 13:02:09;;;;;;;6.72;5.40;;;10.60;99.90;;;;;;4974365;28;20107;-70